sensor_id;sensor_type;location;lat;lon;timestamp;P1;durP1;ratioP1;P2;durP2;ratioP2
80159;SDS011;69486;59.082;37.928;2023-07-28T00:02:06;3.00;;;0.90;;
80159;SDS011;69486;59.082;37.928;2023-07-28T00:04:33;1.52;;;0.80;;
80159;SDS011;69486;59.082;37.928;2023-07-28T00:06:59;1.83;;;1.05;;
80159;SDS011;69486;59.082;37.928;2023-07-28T00:09:25;1.27;;;1.10;;
80159;SDS011;69486;59.082;37.928;2023-07-28T00:11:50;1.90;;;1.00;;
80159;SDS011;69486;59.082;37.928;2023-07-28T00:14:16;2.40;;;0.90;;
80159;SDS011;69486;59.082;37.928;2023-07-28T00:16:42;1.02;;;0.90;;
80159;SDS011;69486;59.082;37.928;2023-07-28T00:19:08;2.65;;;1.05;;
80159;SDS011;69486;59.082;37.928;2023-07-28T00:21:36;1.05;;;0.88;;
80159;SDS011;69486;59.082;37.928;2023-07-28T00:24:02;0.77;;;0.77;;
80159;SDS011;69486;59.082;37.928;2023-07-28T00:26:28;1.95;;;0.98;;
80159;SDS011;69486;59.082;37.928;2023-07-28T00:28:53;1.20;;;0.95;;
80159;SDS011;69486;59.082;37.928;2023-07-28T00:31:19;2.95;;;0.80;;
80159;SDS011;69486;59.082;37.928;2023-07-28T00:33:44;2.22;;;0.90;;
80159;SDS011;69486;59.082;37.928;2023-07-28T00:36:10;1.80;;;1.10;;
80159;SDS011;69486;59.082;37.928;2023-07-28T00:38:36;1.05;;;0.77;;
80159;SDS011;69486;59.082;37.928;2023-07-28T00:41:02;1.42;;;0.73;;
80159;SDS011;69486;59.082;37.928;2023-07-28T00:43:27;2.10;;;0.85;;
80159;SDS011;69486;59.082;37.928;2023-07-28T00:45:53;1.45;;;0.90;;
80159;SDS011;69486;59.082;37.928;2023-07-28T00:48:19;5.65;;;0.90;;
80159;SDS011;69486;59.082;37.928;2023-07-28T00:50:46;1.25;;;0.90;;
80159;SDS011;69486;59.082;37.928;2023-07-28T00:53:13;5.32;;;1.00;;
80159;SDS011;69486;59.082;37.928;2023-07-28T00:55:38;0.80;;;0.80;;
80159;SDS011;69486;59.082;37.928;2023-07-28T00:58:04;1.27;;;0.90;;
80159;SDS011;69486;59.082;37.928;2023-07-28T01:00:30;1.00;;;0.90;;
80159;SDS011;69486;59.082;37.928;2023-07-28T01:02:57;3.03;;;0.90;;
80159;SDS011;69486;59.082;37.928;2023-07-28T01:05:24;1.77;;;1.05;;
80159;SDS011;69486;59.082;37.928;2023-07-28T01:07:59;1.42;;;1.00;;
80159;SDS011;69486;59.082;37.928;2023-07-28T01:10:31;2.35;;;1.45;;
80159;SDS011;69486;59.082;37.928;2023-07-28T01:12:58;4.50;;;0.90;;
80159;SDS011;69486;59.082;37.928;2023-07-28T01:15:23;1.27;;;1.00;;
80159;SDS011;69486;59.082;37.928;2023-07-28T01:17:49;1.27;;;1.02;;
80159;SDS011;69486;59.082;37.928;2023-07-28T01:20:15;1.45;;;0.70;;
80159;SDS011;69486;59.082;37.928;2023-07-28T01:28:10;2.38;;;1.00;;
80159;SDS011;69486;59.082;37.928;2023-07-28T01:30:36;0.80;;;0.80;;
80159;SDS011;69486;59.082;37.928;2023-07-28T01:33:02;1.15;;;0.80;;
80159;SDS011;69486;59.082;37.928;2023-07-28T01:35:31;1.55;;;1.00;;
80159;SDS011;69486;59.082;37.928;2023-07-28T01:37:56;3.08;;;1.00;;
80159;SDS011;69486;59.082;37.928;2023-07-28T01:40:23;1.00;;;0.90;;
80159;SDS011;69486;59.082;37.928;2023-07-28T01:42:48;1.05;;;0.95;;
80159;SDS011;69486;59.082;37.928;2023-07-28T01:45:14;3.20;;;1.00;;
80159;SDS011;69486;59.082;37.928;2023-07-28T01:47:40;0.90;;;0.80;;
80159;SDS011;69486;59.082;37.928;2023-07-28T01:50:06;1.10;;;0.80;;
80159;SDS011;69486;59.082;37.928;2023-07-28T01:52:31;0.98;;;0.85;;
80159;SDS011;69486;59.082;37.928;2023-07-28T01:54:57;1.17;;;0.77;;
80159;SDS011;69486;59.082;37.928;2023-07-28T01:57:22;1.20;;;1.10;;
80159;SDS011;69486;59.082;37.928;2023-07-28T01:59:52;1.00;;;0.90;;
80159;SDS011;69486;59.082;37.928;2023-07-28T02:02:18;2.63;;;0.90;;
80159;SDS011;69486;59.082;37.928;2023-07-28T02:04:43;1.40;;;0.90;;
80159;SDS011;69486;59.082;37.928;2023-07-28T02:07:09;1.58;;;0.77;;
80159;SDS011;69486;59.082;37.928;2023-07-28T02:09:35;1.25;;;0.70;;
80159;SDS011;69486;59.082;37.928;2023-07-28T02:12:00;1.40;;;1.30;;
80159;SDS011;69486;59.082;37.928;2023-07-28T02:14:26;0.93;;;0.60;;
80159;SDS011;69486;59.082;37.928;2023-07-28T02:16:51;0.85;;;0.77;;
80159;SDS011;69486;59.082;37.928;2023-07-28T02:19:17;1.27;;;0.93;;
80159;SDS011;69486;59.082;37.928;2023-07-28T02:21:43;2.35;;;1.15;;
80159;SDS011;69486;59.082;37.928;2023-07-28T02:24:08;1.65;;;0.90;;
80159;SDS011;69486;59.082;37.928;2023-07-28T02:26:34;1.17;;;0.90;;
80159;SDS011;69486;59.082;37.928;2023-07-28T02:29:00;3.05;;;1.10;;
80159;SDS011;69486;59.082;37.928;2023-07-28T02:31:25;1.63;;;0.93;;
80159;SDS011;69486;59.082;37.928;2023-07-28T02:33:52;3.05;;;0.82;;
80159;SDS011;69486;59.082;37.928;2023-07-28T02:36:18;1.50;;;1.10;;
80159;SDS011;69486;59.082;37.928;2023-07-28T02:38:43;1.05;;;0.95;;
80159;SDS011;69486;59.082;37.928;2023-07-28T02:41:10;0.90;;;0.88;;
80159;SDS011;69486;59.082;37.928;2023-07-28T02:43:35;0.93;;;0.88;;
80159;SDS011;69486;59.082;37.928;2023-07-28T02:46:01;1.95;;;1.00;;
80159;SDS011;69486;59.082;37.928;2023-07-28T02:48:27;1.00;;;0.90;;
80159;SDS011;69486;59.082;37.928;2023-07-28T02:50:53;2.53;;;0.90;;
80159;SDS011;69486;59.082;37.928;2023-07-28T02:53:18;2.28;;;0.93;;
80159;SDS011;69486;59.082;37.928;2023-07-28T02:55:44;1.20;;;0.93;;
80159;SDS011;69486;59.082;37.928;2023-07-28T02:58:10;4.07;;;1.13;;
80159;SDS011;69486;59.082;37.928;2023-07-28T03:00:40;1.15;;;1.02;;
80159;SDS011;69486;59.082;37.928;2023-07-28T03:03:06;0.90;;;0.90;;
80159;SDS011;69486;59.082;37.928;2023-07-28T03:05:32;1.25;;;1.08;;
80159;SDS011;69486;59.082;37.928;2023-07-28T03:07:58;1.20;;;1.10;;
80159;SDS011;69486;59.082;37.928;2023-07-28T03:10:24;1.08;;;0.98;;
80159;SDS011;69486;59.082;37.928;2023-07-28T03:12:50;1.52;;;1.17;;
80159;SDS011;69486;59.082;37.928;2023-07-28T03:15:16;1.02;;;0.90;;
80159;SDS011;69486;59.082;37.928;2023-07-28T03:17:41;1.02;;;0.93;;
80159;SDS011;69486;59.082;37.928;2023-07-28T03:20:07;2.00;;;1.00;;
80159;SDS011;69486;59.082;37.928;2023-07-28T03:22:33;1.13;;;0.95;;
80159;SDS011;69486;59.082;37.928;2023-07-28T03:24:59;1.10;;;1.00;;
80159;SDS011;69486;59.082;37.928;2023-07-28T03:27:24;1.00;;;0.90;;
80159;SDS011;69486;59.082;37.928;2023-07-28T03:29:50;2.15;;;1.10;;
80159;SDS011;69486;59.082;37.928;2023-07-28T03:32:16;3.38;;;0.88;;
80159;SDS011;69486;59.082;37.928;2023-07-28T03:34:42;0.75;;;0.75;;
80159;SDS011;69486;59.082;37.928;2023-07-28T03:37:07;0.98;;;0.90;;
80159;SDS011;69486;59.082;37.928;2023-07-28T03:39:33;1.00;;;0.90;;
80159;SDS011;69486;59.082;37.928;2023-07-28T03:41:59;2.65;;;0.95;;
80159;SDS011;69486;59.082;37.928;2023-07-28T03:44:24;1.45;;;1.05;;
80159;SDS011;69486;59.082;37.928;2023-07-28T03:46:50;2.03;;;1.20;;
80159;SDS011;69486;59.082;37.928;2023-07-28T03:49:16;2.20;;;1.05;;
80159;SDS011;69486;59.082;37.928;2023-07-28T03:51:41;5.05;;;1.25;;
80159;SDS011;69486;59.082;37.928;2023-07-28T03:54:07;1.20;;;1.10;;
80159;SDS011;69486;59.082;37.928;2023-07-28T03:56:33;1.50;;;1.10;;
80159;SDS011;69486;59.082;37.928;2023-07-28T03:59:00;2.75;;;1.30;;
80159;SDS011;69486;59.082;37.928;2023-07-28T04:01:25;1.40;;;1.10;;
80159;SDS011;69486;59.082;37.928;2023-07-28T04:03:51;2.33;;;1.00;;
80159;SDS011;69486;59.082;37.928;2023-07-28T04:06:17;1.45;;;1.00;;
80159;SDS011;69486;59.082;37.928;2023-07-28T04:08:42;0.80;;;0.80;;
80159;SDS011;69486;59.082;37.928;2023-07-28T04:11:08;2.40;;;1.00;;
80159;SDS011;69486;59.082;37.928;2023-07-28T04:13:34;1.33;;;1.20;;
80159;SDS011;69486;59.082;37.928;2023-07-28T04:16:07;1.25;;;1.10;;
80159;SDS011;69486;59.082;37.928;2023-07-28T04:18:33;4.22;;;1.50;;
80159;SDS011;69486;59.082;37.928;2023-07-28T04:20:59;1.30;;;1.10;;
80159;SDS011;69486;59.082;37.928;2023-07-28T04:23:25;1.45;;;1.00;;
80159;SDS011;69486;59.082;37.928;2023-07-28T04:25:50;1.83;;;1.10;;
80159;SDS011;69486;59.082;37.928;2023-07-28T04:28:16;1.88;;;1.08;;
80159;SDS011;69486;59.082;37.928;2023-07-28T04:30:41;2.63;;;1.58;;
80159;SDS011;69486;59.082;37.928;2023-07-28T04:33:08;3.20;;;1.05;;
80159;SDS011;69486;59.082;37.928;2023-07-28T04:35:33;1.75;;;1.20;;
80159;SDS011;69486;59.082;37.928;2023-07-28T04:37:59;1.25;;;1.00;;
80159;SDS011;69486;59.082;37.928;2023-07-28T04:40:25;1.40;;;1.20;;
80159;SDS011;69486;59.082;37.928;2023-07-28T04:42:51;1.67;;;1.20;;
80159;SDS011;69486;59.082;37.928;2023-07-28T04:45:18;4.45;;;1.30;;
80159;SDS011;69486;59.082;37.928;2023-07-28T04:47:44;1.88;;;1.15;;
80159;SDS011;69486;59.082;37.928;2023-07-28T04:50:10;1.73;;;1.10;;
80159;SDS011;69486;59.082;37.928;2023-07-28T04:52:35;1.33;;;1.00;;
80159;SDS011;69486;59.082;37.928;2023-07-28T04:55:01;1.70;;;0.93;;
80159;SDS011;69486;59.082;37.928;2023-07-28T04:57:26;1.85;;;1.23;;
80159;SDS011;69486;59.082;37.928;2023-07-28T04:59:52;1.50;;;1.30;;
80159;SDS011;69486;59.082;37.928;2023-07-28T05:02:18;2.00;;;1.33;;
80159;SDS011;69486;59.082;37.928;2023-07-28T05:04:43;1.63;;;1.20;;
80159;SDS011;69486;59.082;37.928;2023-07-28T05:07:09;2.78;;;1.25;;
80159;SDS011;69486;59.082;37.928;2023-07-28T05:09:35;3.08;;;1.40;;
80159;SDS011;69486;59.082;37.928;2023-07-28T05:12:00;3.03;;;1.23;;
80159;SDS011;69486;59.082;37.928;2023-07-28T05:14:26;1.30;;;1.17;;
80159;SDS011;69486;59.082;37.928;2023-07-28T05:16:51;1.77;;;1.35;;
80159;SDS011;69486;59.082;37.928;2023-07-28T05:19:17;1.48;;;1.00;;
80159;SDS011;69486;59.082;37.928;2023-07-28T05:21:43;1.88;;;1.20;;
80159;SDS011;69486;59.082;37.928;2023-07-28T05:24:09;2.50;;;1.35;;
80159;SDS011;69486;59.082;37.928;2023-07-28T05:26:37;2.85;;;1.25;;
80159;SDS011;69486;59.082;37.928;2023-07-28T05:29:03;1.45;;;1.15;;
80159;SDS011;69486;59.082;37.928;2023-07-28T05:31:28;2.55;;;1.20;;
80159;SDS011;69486;59.082;37.928;2023-07-28T05:33:54;1.48;;;1.05;;
80159;SDS011;69486;59.082;37.928;2023-07-28T05:36:20;2.83;;;1.38;;
80159;SDS011;69486;59.082;37.928;2023-07-28T05:38:45;1.77;;;1.50;;
80159;SDS011;69486;59.082;37.928;2023-07-28T05:41:11;1.95;;;1.40;;
80159;SDS011;69486;59.082;37.928;2023-07-28T05:43:37;1.60;;;1.35;;
80159;SDS011;69486;59.082;37.928;2023-07-28T05:46:02;4.68;;;1.48;;
80159;SDS011;69486;59.082;37.928;2023-07-28T05:48:30;1.52;;;1.42;;
80159;SDS011;69486;59.082;37.928;2023-07-28T05:50:56;1.73;;;1.50;;
80159;SDS011;69486;59.082;37.928;2023-07-28T05:53:21;2.30;;;1.30;;
80159;SDS011;69486;59.082;37.928;2023-07-28T05:55:47;2.55;;;1.40;;
80159;SDS011;69486;59.082;37.928;2023-07-28T05:58:14;1.70;;;1.48;;
80159;SDS011;69486;59.082;37.928;2023-07-28T06:00:41;2.30;;;2.00;;
80159;SDS011;69486;59.082;37.928;2023-07-28T06:03:10;1.60;;;1.40;;
80159;SDS011;69486;59.082;37.928;2023-07-28T06:05:39;4.65;;;3.08;;
80159;SDS011;69486;59.082;37.928;2023-07-28T06:08:06;7.00;;;4.97;;
80159;SDS011;69486;59.082;37.928;2023-07-28T06:10:31;5.93;;;4.13;;
80159;SDS011;69486;59.082;37.928;2023-07-28T06:12:58;4.22;;;3.63;;
80159;SDS011;69486;59.082;37.928;2023-07-28T06:15:23;5.97;;;2.50;;
80159;SDS011;69486;59.082;37.928;2023-07-28T06:17:50;4.55;;;1.63;;
80159;SDS011;69486;59.082;37.928;2023-07-28T06:20:16;2.58;;;2.05;;
80159;SDS011;69486;59.082;37.928;2023-07-28T06:22:41;3.10;;;1.77;;
80159;SDS011;69486;59.082;37.928;2023-07-28T06:25:07;2.65;;;2.30;;
80159;SDS011;69486;59.082;37.928;2023-07-28T06:27:33;4.82;;;2.30;;
80159;SDS011;69486;59.082;37.928;2023-07-28T06:29:59;2.50;;;1.70;;
80159;SDS011;69486;59.082;37.928;2023-07-28T06:32:25;3.38;;;1.80;;
80159;SDS011;69486;59.082;37.928;2023-07-28T06:34:53;2.20;;;2.00;;
80159;SDS011;69486;59.082;37.928;2023-07-28T06:37:19;5.32;;;2.63;;
80159;SDS011;69486;59.082;37.928;2023-07-28T06:39:45;4.75;;;3.30;;
80159;SDS011;69486;59.082;37.928;2023-07-28T06:42:14;2.97;;;2.67;;
80159;SDS011;69486;59.082;37.928;2023-07-28T06:44:41;2.53;;;2.30;;
80159;SDS011;69486;59.082;37.928;2023-07-28T06:47:07;2.78;;;2.22;;
80159;SDS011;69486;59.082;37.928;2023-07-28T06:49:33;2.63;;;2.22;;
80159;SDS011;69486;59.082;37.928;2023-07-28T06:52:01;6.03;;;2.83;;
80159;SDS011;69486;59.082;37.928;2023-07-28T06:54:26;23.45;;;13.07;;
80159;SDS011;69486;59.082;37.928;2023-07-28T06:56:58;5.32;;;2.80;;
80159;SDS011;69486;59.082;37.928;2023-07-28T06:59:23;3.75;;;2.58;;
80159;SDS011;69486;59.082;37.928;2023-07-28T07:01:49;2.72;;;2.20;;
80159;SDS011;69486;59.082;37.928;2023-07-28T07:04:16;10.20;;;8.23;;
80159;SDS011;69486;59.082;37.928;2023-07-28T07:06:42;8.73;;;5.72;;
80159;SDS011;69486;59.082;37.928;2023-07-28T07:09:08;6.10;;;2.85;;
80159;SDS011;69486;59.082;37.928;2023-07-28T07:11:33;4.20;;;2.55;;
80159;SDS011;69486;59.082;37.928;2023-07-28T07:14:02;3.47;;;2.67;;
80159;SDS011;69486;59.082;37.928;2023-07-28T07:18:58;4.32;;;3.08;;
80159;SDS011;69486;59.082;37.928;2023-07-28T07:21:24;4.65;;;3.00;;
80159;SDS011;69486;59.082;37.928;2023-07-28T07:23:50;7.03;;;2.92;;
80159;SDS011;69486;59.082;37.928;2023-07-28T07:26:16;4.22;;;2.90;;
80159;SDS011;69486;59.082;37.928;2023-07-28T07:28:41;4.82;;;2.97;;
80159;SDS011;69486;59.082;37.928;2023-07-28T07:31:14;12.40;;;7.95;;
80159;SDS011;69486;59.082;37.928;2023-07-28T07:33:40;14.75;;;10.68;;
80159;SDS011;69486;59.082;37.928;2023-07-28T07:36:11;4.18;;;3.63;;
80159;SDS011;69486;59.082;37.928;2023-07-28T07:38:37;4.47;;;3.80;;
80159;SDS011;69486;59.082;37.928;2023-07-28T07:41:02;16.80;;;13.00;;
80159;SDS011;69486;59.082;37.928;2023-07-28T07:43:29;5.70;;;4.20;;
80159;SDS011;69486;59.082;37.928;2023-07-28T07:45:55;3.80;;;3.15;;
80159;SDS011;69486;59.082;37.928;2023-07-28T07:48:21;7.60;;;2.95;;
80159;SDS011;69486;59.082;37.928;2023-07-28T07:50:46;4.95;;;3.35;;
80159;SDS011;69486;59.082;37.928;2023-07-28T07:53:12;5.53;;;3.30;;
80159;SDS011;69486;59.082;37.928;2023-07-28T07:55:38;4.25;;;2.97;;
80159;SDS011;69486;59.082;37.928;2023-07-28T07:58:04;6.43;;;3.33;;
80159;SDS011;69486;59.082;37.928;2023-07-28T08:00:29;4.13;;;3.20;;
80159;SDS011;69486;59.082;37.928;2023-07-28T08:02:55;4.50;;;3.25;;
80159;SDS011;69486;59.082;37.928;2023-07-28T08:05:22;5.05;;;2.90;;
80159;SDS011;69486;59.082;37.928;2023-07-28T08:07:47;4.43;;;3.42;;
80159;SDS011;69486;59.082;37.928;2023-07-28T08:10:13;8.25;;;3.40;;
80159;SDS011;69486;59.082;37.928;2023-07-28T08:12:38;8.35;;;5.75;;
80159;SDS011;69486;59.082;37.928;2023-07-28T08:15:07;5.22;;;4.15;;
80159;SDS011;69486;59.082;37.928;2023-07-28T08:17:33;12.13;;;7.00;;
80159;SDS011;69486;59.082;37.928;2023-07-28T08:19:59;11.20;;;7.22;;
80159;SDS011;69486;59.082;37.928;2023-07-28T08:22:24;6.68;;;3.72;;
80159;SDS011;69486;59.082;37.928;2023-07-28T08:24:50;4.05;;;3.60;;
80159;SDS011;69486;59.082;37.928;2023-07-28T08:27:16;3.97;;;3.55;;
80159;SDS011;69486;59.082;37.928;2023-07-28T08:29:42;5.95;;;4.03;;
80159;SDS011;69486;59.082;37.928;2023-07-28T08:32:08;5.00;;;2.95;;
80159;SDS011;69486;59.082;37.928;2023-07-28T08:34:34;5.97;;;3.40;;
80159;SDS011;69486;59.082;37.928;2023-07-28T08:36:59;6.65;;;3.85;;
80159;SDS011;69486;59.082;37.928;2023-07-28T08:39:25;12.85;;;7.65;;
80159;SDS011;69486;59.082;37.928;2023-07-28T08:41:57;4.35;;;3.90;;
80159;SDS011;69486;59.082;37.928;2023-07-28T08:44:23;4.95;;;3.25;;
80159;SDS011;69486;59.082;37.928;2023-07-28T08:46:49;6.85;;;3.63;;
80159;SDS011;69486;59.082;37.928;2023-07-28T08:49:15;4.70;;;3.50;;
80159;SDS011;69486;59.082;37.928;2023-07-28T08:51:41;5.70;;;3.90;;
80159;SDS011;69486;59.082;37.928;2023-07-28T08:54:07;7.47;;;3.67;;
80159;SDS011;69486;59.082;37.928;2023-07-28T08:56:33;6.45;;;4.40;;
80159;SDS011;69486;59.082;37.928;2023-07-28T08:58:59;7.03;;;4.20;;
80159;SDS011;69486;59.082;37.928;2023-07-28T09:01:25;9.52;;;4.35;;
80159;SDS011;69486;59.082;37.928;2023-07-28T09:03:50;5.88;;;4.07;;
80159;SDS011;69486;59.082;37.928;2023-07-28T09:06:22;4.88;;;4.03;;
80159;SDS011;69486;59.082;37.928;2023-07-28T09:08:52;6.20;;;4.13;;
80159;SDS011;69486;59.082;37.928;2023-07-28T09:11:21;6.55;;;4.65;;
80159;SDS011;69486;59.082;37.928;2023-07-28T09:13:50;6.18;;;3.90;;
80159;SDS011;69486;59.082;37.928;2023-07-28T09:16:20;5.65;;;3.50;;
80159;SDS011;69486;59.082;37.928;2023-07-28T09:18:51;5.70;;;3.60;;
80159;SDS011;69486;59.082;37.928;2023-07-28T09:21:17;7.55;;;5.90;;
80159;SDS011;69486;59.082;37.928;2023-07-28T09:23:43;4.45;;;4.00;;
80159;SDS011;69486;59.082;37.928;2023-07-28T09:26:09;9.20;;;4.28;;
80159;SDS011;69486;59.082;37.928;2023-07-28T09:28:39;4.68;;;3.47;;
80159;SDS011;69486;59.082;37.928;2023-07-28T09:31:05;5.88;;;3.70;;
80159;SDS011;69486;59.082;37.928;2023-07-28T09:33:34;4.20;;;3.72;;
80159;SDS011;69486;59.082;37.928;2023-07-28T09:36:10;4.22;;;3.55;;
80159;SDS011;69486;59.082;37.928;2023-07-28T09:38:40;8.07;;;3.60;;
80159;SDS011;69486;59.082;37.928;2023-07-28T09:41:06;4.43;;;3.67;;
80159;SDS011;69486;59.082;37.928;2023-07-28T09:43:38;6.32;;;4.15;;
80159;SDS011;69486;59.082;37.928;2023-07-28T09:46:04;5.30;;;3.72;;
80159;SDS011;69486;59.082;37.928;2023-07-28T09:48:32;5.25;;;4.03;;
80159;SDS011;69486;59.082;37.928;2023-07-28T09:51:00;14.15;;;7.10;;
80159;SDS011;69486;59.082;37.928;2023-07-28T09:53:28;10.77;;;6.45;;
80159;SDS011;69486;59.082;37.928;2023-07-28T09:55:54;10.80;;;4.13;;
80159;SDS011;69486;59.082;37.928;2023-07-28T09:58:21;5.68;;;4.10;;
80159;SDS011;69486;59.082;37.928;2023-07-28T10:00:47;8.35;;;3.80;;
80159;SDS011;69486;59.082;37.928;2023-07-28T10:03:13;7.38;;;4.03;;
80159;SDS011;69486;59.082;37.928;2023-07-28T10:05:39;8.65;;;4.20;;
80159;SDS011;69486;59.082;37.928;2023-07-28T10:08:06;5.85;;;3.60;;
80159;SDS011;69486;59.082;37.928;2023-07-28T10:10:32;10.27;;;3.95;;
80159;SDS011;69486;59.082;37.928;2023-07-28T10:12:58;6.15;;;3.33;;
80159;SDS011;69486;59.082;37.928;2023-07-28T10:15:29;4.10;;;3.70;;
80159;SDS011;69486;59.082;37.928;2023-07-28T10:17:55;7.47;;;3.88;;
80159;SDS011;69486;59.082;37.928;2023-07-28T10:25:34;4.28;;;3.63;;
80159;SDS011;69486;59.082;37.928;2023-07-28T10:28:00;8.55;;;3.80;;
80159;SDS011;69486;59.082;37.928;2023-07-28T10:30:28;7.65;;;3.80;;
80159;SDS011;69486;59.082;37.928;2023-07-28T10:32:54;4.38;;;3.45;;
80159;SDS011;69486;59.082;37.928;2023-07-28T10:35:25;7.13;;;3.58;;
80159;SDS011;69486;59.082;37.928;2023-07-28T10:37:54;8.82;;;3.90;;
80159;SDS011;69486;59.082;37.928;2023-07-28T10:42:49;4.28;;;3.55;;
80159;SDS011;69486;59.082;37.928;2023-07-28T10:45:15;4.38;;;3.67;;
80159;SDS011;69486;59.082;37.928;2023-07-28T10:47:41;5.88;;;3.92;;
80159;SDS011;69486;59.082;37.928;2023-07-28T10:50:10;6.20;;;3.65;;
80159;SDS011;69486;59.082;37.928;2023-07-28T10:52:43;5.13;;;3.78;;
80159;SDS011;69486;59.082;37.928;2023-07-28T10:55:15;6.80;;;3.77;;
80159;SDS011;69486;59.082;37.928;2023-07-28T10:57:42;10.13;;;7.50;;
80159;SDS011;69486;59.082;37.928;2023-07-28T11:00:09;8.45;;;4.68;;
80159;SDS011;69486;59.082;37.928;2023-07-28T11:02:39;5.68;;;3.58;;
80159;SDS011;69486;59.082;37.928;2023-07-28T11:05:06;3.83;;;3.42;;
80159;SDS011;69486;59.082;37.928;2023-07-28T11:07:31;8.68;;;3.47;;
80159;SDS011;69486;59.082;37.928;2023-07-28T11:09:59;4.95;;;3.72;;
80159;SDS011;69486;59.082;37.928;2023-07-28T11:12:25;6.28;;;4.00;;
80159;SDS011;69486;59.082;37.928;2023-07-28T11:14:51;7.55;;;3.63;;
80159;SDS011;69486;59.082;37.928;2023-07-28T11:17:17;9.18;;;5.68;;
80159;SDS011;69486;59.082;37.928;2023-07-28T11:19:43;6.70;;;3.95;;
80159;SDS011;69486;59.082;37.928;2023-07-28T11:22:09;6.28;;;4.00;;
80159;SDS011;69486;59.082;37.928;2023-07-28T11:24:34;6.10;;;4.05;;
80159;SDS011;69486;59.082;37.928;2023-07-28T11:27:00;4.88;;;3.97;;
80159;SDS011;69486;59.082;37.928;2023-07-28T11:29:27;9.65;;;4.00;;
80159;SDS011;69486;59.082;37.928;2023-07-28T11:31:53;4.43;;;3.90;;
80159;SDS011;69486;59.082;37.928;2023-07-28T11:34:19;7.75;;;4.40;;
80159;SDS011;69486;59.082;37.928;2023-07-28T11:36:44;5.18;;;3.95;;
80159;SDS011;69486;59.082;37.928;2023-07-28T11:39:10;5.30;;;3.78;;
80159;SDS011;69486;59.082;37.928;2023-07-28T11:41:36;5.28;;;4.05;;
80159;SDS011;69486;59.082;37.928;2023-07-28T11:44:03;7.88;;;4.45;;
80159;SDS011;69486;59.082;37.928;2023-07-28T11:51:40;7.55;;;4.15;;
80159;SDS011;69486;59.082;37.928;2023-07-28T11:54:10;5.07;;;4.22;;
80159;SDS011;69486;59.082;37.928;2023-07-28T11:56:36;8.32;;;4.13;;
80159;SDS011;69486;59.082;37.928;2023-07-28T11:59:02;8.07;;;4.10;;
80159;SDS011;69486;59.082;37.928;2023-07-28T12:01:28;4.80;;;3.72;;
80159;SDS011;69486;59.082;37.928;2023-07-28T12:03:54;5.20;;;3.83;;
80159;SDS011;69486;59.082;37.928;2023-07-28T12:06:19;6.20;;;3.85;;
80159;SDS011;69486;59.082;37.928;2023-07-28T12:08:45;5.93;;;4.13;;
80159;SDS011;69486;59.082;37.928;2023-07-28T12:11:14;5.63;;;3.90;;
80159;SDS011;69486;59.082;37.928;2023-07-28T12:13:49;5.45;;;4.18;;
80159;SDS011;69486;59.082;37.928;2023-07-28T12:16:31;5.70;;;4.32;;
80159;SDS011;69486;59.082;37.928;2023-07-28T12:18:57;7.32;;;4.25;;
80159;SDS011;69486;59.082;37.928;2023-07-28T12:21:23;6.03;;;4.00;;
80159;SDS011;69486;59.082;37.928;2023-07-28T12:23:48;6.03;;;4.10;;
80159;SDS011;69486;59.082;37.928;2023-07-28T12:26:14;5.35;;;3.83;;
80159;SDS011;69486;59.082;37.928;2023-07-28T12:28:40;6.03;;;3.67;;
80159;SDS011;69486;59.082;37.928;2023-07-28T12:31:05;5.68;;;3.47;;
80159;SDS011;69486;59.082;37.928;2023-07-28T12:33:31;7.47;;;3.95;;
80159;SDS011;69486;59.082;37.928;2023-07-28T12:35:57;6.20;;;3.92;;
80159;SDS011;69486;59.082;37.928;2023-07-28T12:38:22;13.57;;;8.60;;
80159;SDS011;69486;59.082;37.928;2023-07-28T12:40:48;6.93;;;4.57;;
80159;SDS011;69486;59.082;37.928;2023-07-28T12:43:14;6.70;;;3.92;;
80159;SDS011;69486;59.082;37.928;2023-07-28T12:45:40;8.57;;;3.58;;
80159;SDS011;69486;59.082;37.928;2023-07-28T12:48:07;6.78;;;3.72;;
80159;SDS011;69486;59.082;37.928;2023-07-28T12:50:33;3.72;;;3.22;;
80159;SDS011;69486;59.082;37.928;2023-07-28T12:52:58;4.32;;;3.42;;
80159;SDS011;69486;59.082;37.928;2023-07-28T12:55:24;6.00;;;3.15;;
80159;SDS011;69486;59.082;37.928;2023-07-28T12:57:52;5.90;;;4.20;;
80159;SDS011;69486;59.082;37.928;2023-07-28T13:00:18;4.50;;;3.33;;
80159;SDS011;69486;59.082;37.928;2023-07-28T13:02:44;8.27;;;2.97;;
80159;SDS011;69486;59.082;37.928;2023-07-28T13:05:12;4.22;;;3.00;;
80159;SDS011;69486;59.082;37.928;2023-07-28T13:07:38;3.28;;;2.97;;
80159;SDS011;69486;59.082;37.928;2023-07-28T13:10:05;3.65;;;3.10;;
80159;SDS011;69486;59.082;37.928;2023-07-28T13:12:31;4.32;;;3.35;;
80159;SDS011;69486;59.082;37.928;2023-07-28T13:14:56;4.32;;;3.13;;
80159;SDS011;69486;59.082;37.928;2023-07-28T13:17:22;3.78;;;2.95;;
80159;SDS011;69486;59.082;37.928;2023-07-28T13:19:48;4.18;;;3.30;;
80159;SDS011;69486;59.082;37.928;2023-07-28T13:22:16;3.75;;;3.25;;
80159;SDS011;69486;59.082;37.928;2023-07-28T13:24:42;7.68;;;3.42;;
80159;SDS011;69486;59.082;37.928;2023-07-28T13:27:09;5.65;;;3.28;;
80159;SDS011;69486;59.082;37.928;2023-07-28T13:29:34;18.25;;;13.23;;
80159;SDS011;69486;59.082;37.928;2023-07-28T13:32:00;4.20;;;3.63;;
80159;SDS011;69486;59.082;37.928;2023-07-28T13:34:26;8.32;;;3.45;;
80159;SDS011;69486;59.082;37.928;2023-07-28T13:36:53;5.03;;;3.28;;
80159;SDS011;69486;59.082;37.928;2023-07-28T13:39:19;4.57;;;3.50;;
80159;SDS011;69486;59.082;37.928;2023-07-28T13:41:44;4.38;;;3.10;;
80159;SDS011;69486;59.082;37.928;2023-07-28T13:44:10;5.93;;;3.22;;
80159;SDS011;69486;59.082;37.928;2023-07-28T13:46:36;4.88;;;3.58;;
80159;SDS011;69486;59.082;37.928;2023-07-28T13:49:01;5.65;;;2.90;;
80159;SDS011;69486;59.082;37.928;2023-07-28T13:51:27;3.25;;;2.55;;
80159;SDS011;69486;59.082;37.928;2023-07-28T13:53:53;15.25;;;11.32;;
80159;SDS011;69486;59.082;37.928;2023-07-28T13:56:19;6.55;;;4.03;;
80159;SDS011;69486;59.082;37.928;2023-07-28T13:58:45;4.25;;;3.72;;
80159;SDS011;69486;59.082;37.928;2023-07-28T14:01:10;3.50;;;3.08;;
80159;SDS011;69486;59.082;37.928;2023-07-28T14:03:36;4.88;;;3.10;;
80159;SDS011;69486;59.082;37.928;2023-07-28T14:06:02;5.05;;;2.95;;
80159;SDS011;69486;59.082;37.928;2023-07-28T14:08:27;4.68;;;3.28;;
80159;SDS011;69486;59.082;37.928;2023-07-28T14:10:53;4.82;;;2.95;;
80159;SDS011;69486;59.082;37.928;2023-07-28T14:13:19;4.32;;;2.67;;
80159;SDS011;69486;59.082;37.928;2023-07-28T14:15:44;6.65;;;3.13;;
80159;SDS011;69486;59.082;37.928;2023-07-28T14:18:10;3.22;;;2.92;;
80159;SDS011;69486;59.082;37.928;2023-07-28T14:20:36;5.13;;;3.33;;
80159;SDS011;69486;59.082;37.928;2023-07-28T14:23:01;7.50;;;3.38;;
80159;SDS011;69486;59.082;37.928;2023-07-28T14:25:45;4.18;;;3.13;;
80159;SDS011;69486;59.082;37.928;2023-07-28T14:28:11;5.10;;;3.00;;
80159;SDS011;69486;59.082;37.928;2023-07-28T14:30:37;3.22;;;2.83;;
80159;SDS011;69486;59.082;37.928;2023-07-28T14:33:02;4.32;;;3.00;;
80159;SDS011;69486;59.082;37.928;2023-07-28T14:35:28;5.72;;;3.10;;
80159;SDS011;69486;59.082;37.928;2023-07-28T14:37:54;5.93;;;2.95;;
80159;SDS011;69486;59.082;37.928;2023-07-28T14:40:19;2.95;;;2.60;;
80159;SDS011;69486;59.082;37.928;2023-07-28T14:42:45;5.15;;;2.92;;
80159;SDS011;69486;59.082;37.928;2023-07-28T14:45:11;4.68;;;3.10;;
80159;SDS011;69486;59.082;37.928;2023-07-28T14:47:36;3.75;;;2.78;;
80159;SDS011;69486;59.082;37.928;2023-07-28T14:50:02;4.85;;;2.90;;